createdAt,value
2023-05-25T00:02:06.839Z,100.00
2023-05-25T00:04:35.540Z,100.00
2023-05-25T00:07:04.374Z,100.00
2023-05-25T00:09:32.530Z,100.00
2023-05-25T00:12:00.992Z,100.00
2023-05-25T00:14:30.968Z,100.00
2023-05-25T00:16:59.267Z,100.00
2023-05-25T00:19:28.926Z,100.00
2023-05-25T00:21:57.105Z,100.00
2023-05-25T00:24:25.200Z,100.00
2023-05-25T00:26:53.355Z,100.00
2023-05-25T00:29:21.481Z,100.00
2023-05-25T00:31:50.950Z,100.00
2023-05-25T00:34:20.087Z,100.00
2023-05-25T00:36:50.027Z,100.00
2023-05-25T00:39:19.129Z,100.00
2023-05-25T00:41:48.352Z,100.00
2023-05-25T00:44:21.580Z,100.00
2023-05-25T00:46:51.711Z,100.00
2023-05-25T00:49:21.399Z,100.00
2023-05-25T00:51:53.625Z,100.00
2023-05-25T00:54:22.022Z,100.00
2023-05-25T00:56:53.474Z,100.00
2023-05-25T00:59:26.919Z,100.00
2023-05-25T01:01:56.127Z,100.00
2023-05-25T01:04:28.502Z,100.00
2023-05-25T01:06:58.936Z,100.00
2023-05-25T01:09:29.174Z,100.00
2023-05-25T01:11:58.029Z,100.00
2023-05-25T01:14:26.826Z,100.00
2023-05-25T01:16:56.463Z,100.00
2023-05-25T01:19:24.613Z,100.00
2023-05-25T01:21:58.338Z,100.00
2023-05-25T01:24:32.536Z,100.00
2023-05-25T01:27:06.485Z,100.00
2023-05-25T01:29:35.753Z,100.00
2023-05-25T01:32:05.066Z,100.00
2023-05-25T01:34:35.808Z,100.00
2023-05-25T01:37:05.783Z,100.00
2023-05-25T01:39:37.653Z,100.00
2023-05-25T01:42:06.110Z,100.00
2023-05-25T01:44:36.097Z,100.00
2023-05-25T01:47:07.277Z,100.00
2023-05-25T01:49:44.412Z,100.00
2023-05-25T01:52:20.672Z,100.00
2023-05-25T01:54:53.625Z,100.00
2023-05-25T01:57:22.246Z,100.00
2023-05-25T01:59:50.991Z,100.00
2023-05-25T02:02:20.062Z,100.00
2023-05-25T02:04:48.692Z,100.00
2023-05-25T02:07:18.900Z,100.00
2023-05-25T02:09:47.067Z,100.00
2023-05-25T02:12:15.242Z,100.00
2023-05-25T02:14:43.550Z,100.00
2023-05-25T02:17:12.936Z,100.00
2023-05-25T02:19:42.262Z,100.00
2023-05-25T02:22:10.467Z,100.00
2023-05-25T02:24:39.957Z,100.00
2023-05-25T02:27:08.455Z,100.00
2023-05-25T02:29:36.604Z,100.00
2023-05-25T02:32:04.912Z,100.00
2023-05-25T02:34:33.246Z,100.00
2023-05-25T02:37:01.938Z,100.00
2023-05-25T02:39:30.169Z,100.00
2023-05-25T02:42:01.411Z,100.00
2023-05-25T02:44:29.699Z,100.00
2023-05-25T02:46:57.913Z,100.00
2023-05-25T02:49:26.083Z,100.00
2023-05-25T02:51:54.342Z,100.00
2023-05-25T02:54:22.575Z,100.00
2023-05-25T02:56:50.704Z,100.00
2023-05-25T02:59:21.631Z,100.00
2023-05-25T03:01:49.808Z,100.00
2023-05-25T03:04:19.212Z,100.00
2023-05-25T03:06:47.602Z,100.00
2023-05-25T03:09:19.619Z,100.00
2023-05-25T03:11:50.469Z,100.00
2023-05-25T03:14:22.894Z,100.00
2023-05-25T03:16:57.294Z,100.00
2023-05-25T03:19:27.498Z,100.00
2023-05-25T03:21:55.636Z,100.00
2023-05-25T03:24:23.869Z,100.00
2023-05-25T03:26:52.023Z,100.00
2023-05-25T03:29:20.268Z,100.00
2023-05-25T03:31:49.968Z,100.00
2023-05-25T03:34:19.672Z,100.00
2023-05-25T03:36:47.829Z,100.00
2023-05-25T03:39:18.286Z,100.00
2023-05-25T03:41:46.555Z,100.00
2023-05-25T03:44:15.308Z,100.00
2023-05-25T03:46:44.847Z,100.00
2023-05-25T03:49:16.080Z,100.00
2023-05-25T03:51:45.676Z,100.00
2023-05-25T03:54:14.734Z,100.00
2023-05-25T03:56:42.889Z,100.00
2023-05-25T03:59:11.104Z,100.00
2023-05-25T04:01:40.141Z,100.00
2023-05-25T04:04:08.497Z,100.00
2023-05-25T04:06:40.172Z,100.00
2023-05-25T04:09:08.915Z,100.00
2023-05-25T04:11:37.126Z,100.00
2023-05-25T04:14:05.525Z,100.00
2023-05-25T04:16:37.077Z,100.00
2023-05-25T04:19:06.156Z,100.00
2023-05-25T04:21:34.588Z,100.00
2023-05-25T04:24:04.625Z,100.00
2023-05-25T04:26:32.882Z,100.00
2023-05-25T04:29:03.111Z,100.00
2023-05-25T04:31:57.022Z,100.00
2023-05-25T04:34:36.534Z,100.00
2023-05-25T04:37:15.430Z,100.00
2023-05-25T04:39:45.076Z,100.00
2023-05-25T04:42:13.453Z,100.00
2023-05-25T04:44:41.769Z,100.00
2023-05-25T04:47:10.806Z,100.00
2023-05-25T04:49:40.041Z,100.00
2023-05-25T04:52:09.787Z,100.00
2023-05-25T04:54:39.459Z,100.00
2023-05-25T04:57:10.989Z,100.00
2023-05-25T04:59:39.178Z,100.00
2023-05-25T05:02:08.430Z,100.00
2023-05-25T05:04:37.341Z,100.00
2023-05-25T05:07:07.987Z,100.00
2023-05-25T05:09:36.478Z,100.00
2023-05-25T05:12:06.403Z,100.00
2023-05-25T05:14:41.236Z,100.00
2023-05-25T05:17:09.774Z,100.00
2023-05-25T05:19:37.931Z,100.00
2023-05-25T05:22:09.743Z,100.00
2023-05-25T05:24:39.430Z,100.00
2023-05-25T05:27:07.682Z,100.00
2023-05-25T05:29:46.131Z,100.00
2023-05-25T05:32:14.414Z,100.00
2023-05-25T05:34:42.665Z,100.00
2023-05-25T05:37:21.742Z,100.00
2023-05-25T05:39:52.495Z,100.00
2023-05-25T05:42:20.732Z,100.00
2023-05-25T05:44:50.506Z,100.00
2023-05-25T05:47:18.970Z,100.00
2023-05-25T05:49:47.477Z,100.00
2023-05-25T05:52:15.892Z,100.00
2023-05-25T05:54:44.076Z,100.00
2023-05-25T05:57:14.725Z,100.00
2023-05-25T05:59:43.203Z,100.00
2023-05-25T06:02:12.933Z,100.00
2023-05-25T06:04:41.538Z,100.00
2023-05-25T06:07:09.826Z,100.00
2023-05-25T06:09:38.075Z,100.00
2023-05-25T06:12:07.021Z,100.00
2023-05-25T06:14:35.571Z,100.00
2023-05-25T06:17:05.589Z,100.00
2023-05-25T06:19:35.308Z,100.00
2023-05-25T06:22:04.871Z,100.00
2023-05-25T06:24:33.019Z,100.00
2023-05-25T06:27:03.296Z,100.00
2023-05-25T06:29:31.670Z,100.00
2023-05-25T06:32:00.608Z,100.00
2023-05-25T06:34:28.946Z,100.00
2023-05-25T06:36:58.686Z,100.00
2023-05-25T06:39:27.490Z,100.00
2023-05-25T06:41:55.729Z,100.00
2023-05-25T06:44:30.128Z,100.00
2023-05-25T06:47:02.420Z,100.00
2023-05-25T06:49:30.544Z,100.00
2023-05-25T06:52:00.101Z,100.00
2023-05-25T06:54:28.330Z,100.00
2023-05-25T06:56:56.838Z,100.00
2023-05-25T06:59:25.132Z,100.00
2023-05-25T07:01:54.117Z,100.00
2023-05-25T07:04:22.672Z,100.00
2023-05-25T07:06:51.993Z,100.00
2023-05-25T07:09:21.564Z,100.00
2023-05-25T07:11:49.749Z,100.00
2023-05-25T07:14:18.686Z,100.00
2023-05-25T07:16:46.836Z,100.00
2023-05-25T07:19:15.212Z,100.00
2023-05-25T07:21:43.375Z,100.00
2023-05-25T07:24:11.594Z,100.00
2023-05-25T07:26:41.143Z,100.00
2023-05-25T07:29:09.418Z,100.00
2023-05-25T07:31:37.685Z,100.00
2023-05-25T07:34:05.945Z,100.00
2023-05-25T07:36:34.132Z,100.00
2023-05-25T07:39:02.650Z,100.00
2023-05-25T07:41:30.904Z,100.00
2023-05-25T07:44:00.656Z,100.00
2023-05-25T07:46:28.905Z,100.00
2023-05-25T07:48:58.389Z,100.00
2023-05-25T07:51:27.143Z,100.00
2023-05-25T07:53:56.579Z,100.00
2023-05-25T07:56:24.888Z,100.00
2023-05-25T07:58:53.081Z,100.00
2023-05-25T08:01:24.899Z,100.00
2023-05-25T08:03:54.562Z,100.00
2023-05-25T08:06:23.304Z,100.00
2023-05-25T08:08:52.011Z,100.00
2023-05-25T08:11:24.545Z,100.00
2023-05-25T08:13:52.701Z,100.00
2023-05-25T08:16:22.381Z,100.00
2023-05-25T08:18:50.586Z,100.00
2023-05-25T08:21:18.954Z,100.00
2023-05-25T08:23:47.107Z,100.00
2023-05-25T08:26:34.203Z,100.00
2023-05-25T08:29:04.206Z,100.00
2023-05-25T08:31:34.242Z,100.00
2023-05-25T08:34:02.845Z,100.00
2023-05-25T08:36:34.135Z,100.00
2023-05-25T08:39:02.340Z,100.00
2023-05-25T08:41:30.874Z,100.00
2023-05-25T08:43:59.113Z,100.00
2023-05-25T08:46:31.552Z,100.00
2023-05-25T08:49:06.345Z,100.00
2023-05-25T08:51:38.181Z,100.00
2023-05-25T08:54:11.313Z,100.00
2023-05-25T08:56:43.401Z,100.00
2023-05-25T08:59:19.211Z,100.00
2023-05-25T09:01:49.166Z,100.00
2023-05-25T09:04:19.727Z,100.00
2023-05-25T09:06:57.325Z,100.00
2023-05-25T09:09:30.568Z,100.00
2023-05-25T09:11:58.979Z,100.00
2023-05-25T09:14:27.375Z,100.00
2023-05-25T09:16:55.652Z,95.26
2023-05-25T09:19:25.210Z,85.75
2023-05-25T09:22:03.016Z,85.68
2023-05-25T09:24:44.094Z,86.34
2023-05-25T09:27:13.190Z,85.27
2023-05-25T09:29:41.390Z,84.91
2023-05-25T09:32:09.653Z,86.28
2023-05-25T09:34:39.160Z,81.73
2023-05-25T09:37:14.986Z,77.41
2023-05-25T09:39:44.039Z,74.52
2023-05-25T09:42:12.780Z,71.72
2023-05-25T09:44:42.739Z,70.64
2023-05-25T09:47:11.172Z,67.00
2023-05-25T09:49:40.738Z,64.78
2023-05-25T09:52:09.142Z,68.10
2023-05-25T09:54:38.421Z,68.01
2023-05-25T09:57:07.657Z,67.63
2023-05-25T09:59:35.792Z,68.56
2023-05-25T10:02:04.107Z,68.25
2023-05-25T10:04:32.383Z,66.26
2023-05-25T10:07:02.402Z,68.64
2023-05-25T10:09:31.422Z,66.64
2023-05-25T10:12:01.430Z,66.65
2023-05-25T10:14:31.228Z,60.53
2023-05-25T10:17:00.663Z,59.07
2023-05-25T10:19:33.106Z,58.56
2023-05-25T10:22:08.246Z,60.11
2023-05-25T10:24:40.112Z,58.06
2023-05-25T10:27:25.642Z,55.81
2023-05-25T10:29:57.285Z,54.72
2023-05-25T10:32:25.671Z,53.23
2023-05-25T10:34:54.055Z,55.36
2023-05-25T10:37:24.691Z,55.27
2023-05-25T10:39:53.557Z,56.66
2023-05-25T10:42:22.140Z,57.98
2023-05-25T10:44:50.980Z,58.31
2023-05-25T10:47:19.648Z,57.61
2023-05-25T10:49:55.073Z,58.30
2023-05-25T10:52:28.824Z,58.44
2023-05-25T10:54:58.101Z,57.20
2023-05-25T10:57:26.854Z,57.80
2023-05-25T11:00:00.039Z,58.00
2023-05-25T11:02:32.616Z,59.38
2023-05-25T11:05:38.203Z,57.50
2023-05-25T11:08:09.158Z,54.65
2023-05-25T11:10:45.074Z,55.64
2023-05-25T11:13:34.341Z,53.92
2023-05-25T11:16:20.030Z,55.86
2023-05-25T11:18:52.810Z,54.93
2023-05-25T11:21:52.548Z,54.11
2023-05-25T11:24:22.051Z,52.29
2023-05-25T11:26:57.923Z,52.29
2023-05-25T11:29:27.357Z,51.70
2023-05-25T11:31:56.737Z,52.55
2023-05-25T11:34:25.991Z,50.40
2023-05-25T11:37:01.801Z,49.18
2023-05-25T11:39:32.150Z,50.95
2023-05-25T11:42:04.346Z,49.12
2023-05-25T11:44:33.881Z,48.62
2023-05-25T11:47:05.034Z,48.21
2023-05-25T11:49:33.265Z,47.70
2023-05-25T11:52:06.271Z,46.97
2023-05-25T11:54:36.546Z,48.03
2023-05-25T11:57:05.059Z,48.76
2023-05-25T11:59:33.678Z,48.59
2023-05-25T12:02:02.894Z,46.87
2023-05-25T12:04:32.889Z,46.68
2023-05-25T12:07:05.071Z,48.31
2023-05-25T12:09:36.756Z,46.75
2023-05-25T12:12:05.831Z,45.27
2023-05-25T12:14:36.263Z,47.23
2023-05-25T12:17:04.768Z,47.39
2023-05-25T12:19:33.399Z,46.40
2023-05-25T12:22:01.711Z,43.91
2023-05-25T12:24:29.922Z,43.37
2023-05-25T12:27:01.809Z,44.56
2023-05-25T12:29:30.309Z,45.91
2023-05-25T12:32:03.466Z,44.67
2023-05-25T12:34:31.655Z,44.43
2023-05-25T12:37:00.174Z,44.36
2023-05-25T12:39:38.964Z,46.15
2023-05-25T12:42:14.936Z,44.51
2023-05-25T12:44:43.894Z,45.78
2023-05-25T12:47:14.064Z,44.41
2023-05-25T12:49:43.790Z,43.66
2023-05-25T12:52:13.056Z,43.96
2023-05-25T12:54:44.130Z,44.33
2023-05-25T12:57:15.679Z,42.66
2023-05-25T12:59:45.389Z,42.58
2023-05-25T13:02:14.681Z,42.57
2023-05-25T13:04:44.615Z,42.98
2023-05-25T13:07:12.868Z,40.90
2023-05-25T13:09:41.090Z,41.72
2023-05-25T13:12:09.921Z,42.30
2023-05-25T13:14:39.470Z,42.27
2023-05-25T13:17:07.914Z,41.91
2023-05-25T13:19:36.144Z,41.44
2023-05-25T13:22:05.201Z,41.78
2023-05-25T13:24:33.574Z,41.74
2023-05-25T13:27:01.710Z,42.29
2023-05-25T13:29:29.911Z,40.78
2023-05-25T13:31:59.528Z,40.25
2023-05-25T13:34:27.858Z,40.48
2023-05-25T13:36:56.574Z,40.45
2023-05-25T13:39:24.822Z,40.15
2023-05-25T13:41:52.960Z,40.50
2023-05-25T13:44:21.107Z,40.78
2023-05-25T13:46:49.516Z,40.52
2023-05-25T13:49:19.770Z,40.42
2023-05-25T13:51:48.081Z,41.55
2023-05-25T13:54:16.366Z,40.27
2023-05-25T13:56:44.506Z,39.75
2023-05-25T13:59:13.063Z,39.27
2023-05-25T14:01:41.956Z,38.60
2023-05-25T14:04:11.785Z,39.73
2023-05-25T14:06:41.483Z,41.01
2023-05-25T14:09:12.095Z,40.30
2023-05-25T14:11:41.057Z,40.97
2023-05-25T14:14:19.472Z,39.18
2023-05-25T14:16:55.532Z,40.61
2023-05-25T14:19:23.716Z,40.72
2023-05-25T14:22:08.021Z,39.58
2023-05-25T14:24:39.710Z,37.67
2023-05-25T14:27:08.109Z,38.14
2023-05-25T14:29:36.321Z,38.75
2023-05-25T14:32:04.930Z,39.35
2023-05-25T14:34:33.122Z,39.14
2023-05-25T14:37:02.941Z,38.65
2023-05-25T14:39:31.129Z,39.62
2023-05-25T14:41:59.300Z,39.29
2023-05-25T14:44:27.550Z,38.22
2023-05-25T14:46:56.020Z,38.32
2023-05-25T14:49:25.095Z,38.36
2023-05-25T14:51:53.388Z,38.09
2023-05-25T14:54:22.903Z,39.07
2023-05-25T14:56:51.122Z,39.54
2023-05-25T14:59:19.256Z,37.98
2023-05-25T15:01:47.668Z,38.48
2023-05-25T15:04:15.941Z,37.23
2023-05-25T15:06:44.114Z,39.77
2023-05-25T15:09:13.341Z,38.82
2023-05-25T15:11:42.869Z,39.15
2023-05-25T15:14:11.017Z,38.47
2023-05-25T15:16:39.296Z,38.65
2023-05-25T15:19:09.971Z,39.05
2023-05-25T15:21:40.017Z,40.87
2023-05-25T15:24:08.308Z,39.25
2023-05-25T15:26:36.416Z,40.79
2023-05-25T15:29:06.013Z,41.50
2023-05-25T15:31:34.259Z,40.18
2023-05-25T15:34:02.454Z,39.74
2023-05-25T15:36:31.365Z,39.84
2023-05-25T15:38:59.784Z,39.48
2023-05-25T15:41:28.035Z,39.97
2023-05-25T15:44:01.032Z,40.46
2023-05-25T15:46:30.802Z,41.64
2023-05-25T15:48:58.976Z,40.96
2023-05-25T15:51:27.151Z,40.83
2023-05-25T15:53:55.421Z,40.69
2023-05-25T15:56:23.807Z,40.10
2023-05-25T15:58:52.695Z,40.12
2023-05-25T16:01:20.985Z,39.83
2023-05-25T16:03:50.587Z,39.96
2023-05-25T16:06:18.816Z,39.61
2023-05-25T16:08:47.082Z,40.99
2023-05-25T16:11:15.295Z,40.84
2023-05-25T16:13:43.444Z,40.54
2023-05-25T16:16:11.664Z,39.67
2023-05-25T16:18:39.887Z,38.58
2023-05-25T16:21:09.424Z,39.22
2023-05-25T16:23:37.660Z,40.09
2023-05-25T16:26:06.075Z,40.16
2023-05-25T16:28:34.239Z,41.37
2023-05-25T16:31:02.393Z,41.38
2023-05-25T16:33:30.568Z,42.10
2023-05-25T16:35:58.758Z,42.25
2023-05-25T16:38:28.327Z,41.37
2023-05-25T16:40:56.589Z,42.20
2023-05-25T16:43:25.966Z,42.33
2023-05-25T16:45:54.205Z,42.18
2023-05-25T16:48:23.242Z,42.63
2023-05-25T16:50:51.528Z,43.16
2023-05-25T16:53:19.726Z,43.18
2023-05-25T16:55:49.390Z,43.46
2023-05-25T16:58:17.601Z,44.38
2023-05-25T17:00:45.732Z,44.33
2023-05-25T17:03:14.015Z,44.62
2023-05-25T17:05:42.556Z,46.29
2023-05-25T17:08:10.807Z,46.07
2023-05-25T17:10:38.916Z,46.03
2023-05-25T17:13:08.450Z,46.62
2023-05-25T17:15:36.700Z,46.55
2023-05-25T17:18:05.050Z,47.55
2023-05-25T17:20:33.247Z,48.11
2023-05-25T17:23:01.440Z,48.75
2023-05-25T17:25:29.675Z,50.66
2023-05-25T17:27:57.837Z,50.65
2023-05-25T17:30:27.588Z,51.86
2023-05-25T17:33:01.446Z,51.62
2023-05-25T17:35:30.193Z,52.12
2023-05-25T17:37:58.419Z,52.74
2023-05-25T17:40:26.667Z,52.86
2023-05-25T17:42:54.859Z,53.03
2023-05-25T17:45:23.122Z,53.66
2023-05-25T17:47:52.892Z,52.96
2023-05-25T17:50:21.082Z,55.04
2023-05-25T17:52:49.393Z,55.13
2023-05-25T17:55:17.956Z,56.16
2023-05-25T17:57:46.703Z,57.87
2023-05-25T18:00:20.203Z,58.99
2023-05-25T18:02:49.706Z,59.79
2023-05-25T18:05:20.435Z,60.22
2023-05-25T18:07:49.177Z,61.70
2023-05-25T18:10:17.944Z,62.45
2023-05-25T18:12:49.676Z,62.91
2023-05-25T18:15:18.849Z,63.61
2023-05-25T18:17:47.887Z,64.89
2023-05-25T18:20:17.362Z,65.74
2023-05-25T18:22:47.789Z,67.59
2023-05-25T18:25:16.874Z,68.92
2023-05-25T18:27:48.441Z,69.63
2023-05-25T18:30:17.305Z,70.95
2023-05-25T18:32:45.533Z,71.95
2023-05-25T18:35:13.773Z,72.05
2023-05-25T18:37:42.029Z,72.08
2023-05-25T18:40:12.968Z,72.20
2023-05-25T18:42:41.246Z,72.21
2023-05-25T18:45:10.200Z,72.21
2023-05-25T18:47:38.563Z,73.05
2023-05-25T18:50:07.645Z,73.79
2023-05-25T18:52:35.781Z,73.14
2023-05-25T18:55:04.161Z,73.74
2023-05-25T18:57:34.088Z,73.22
2023-05-25T19:00:02.619Z,72.38
2023-05-25T19:02:31.770Z,73.62
2023-05-25T19:05:00.002Z,73.66
2023-05-25T19:07:28.250Z,72.97
2023-05-25T19:09:56.619Z,74.00
2023-05-25T19:12:24.802Z,73.66
2023-05-25T19:14:54.363Z,73.72
2023-05-25T19:17:22.589Z,74.21
2023-05-25T19:19:50.859Z,74.78
2023-05-25T19:22:19.096Z,75.31
2023-05-25T19:24:48.873Z,75.75
2023-05-25T19:27:22.474Z,76.87
2023-05-25T19:29:50.940Z,78.48
2023-05-25T19:32:20.748Z,79.46
2023-05-25T19:34:49.156Z,79.73
2023-05-25T19:37:17.797Z,82.43
2023-05-25T19:39:46.338Z,84.13
2023-05-25T19:42:14.858Z,84.94
2023-05-25T19:44:45.446Z,82.24
2023-05-25T19:47:13.973Z,83.48
2023-05-25T19:49:44.123Z,85.46
2023-05-25T19:52:12.551Z,81.37
2023-05-25T19:54:41.070Z,84.18
2023-05-25T19:57:09.533Z,85.05
2023-05-25T19:59:38.605Z,85.22
2023-05-25T20:02:07.362Z,84.53
2023-05-25T20:04:35.888Z,82.91
2023-05-25T20:07:06.058Z,85.21
2023-05-25T20:09:35.731Z,83.65
2023-05-25T20:12:04.189Z,85.40
2023-05-25T20:14:33.787Z,86.37
2023-05-25T20:17:01.997Z,86.85
2023-05-25T20:19:30.298Z,84.36
2023-05-25T20:22:00.252Z,84.64
2023-05-25T20:24:29.849Z,82.32
2023-05-25T20:26:58.037Z,86.12
2023-05-25T20:29:26.549Z,89.73
2023-05-25T20:31:54.799Z,87.18
2023-05-25T20:34:23.021Z,89.35
2023-05-25T20:36:51.194Z,91.28
2023-05-25T20:39:19.464Z,89.22
2023-05-25T20:41:48.999Z,90.09
2023-05-25T20:44:17.279Z,87.75
2023-05-25T20:46:45.469Z,88.33
2023-05-25T20:49:13.707Z,87.98
2023-05-25T20:51:44.473Z,89.03
2023-05-25T20:54:12.639Z,90.04
2023-05-25T20:56:40.941Z,88.77
2023-05-25T20:59:10.657Z,91.08
2023-05-25T21:01:39.373Z,92.89
2023-05-25T21:04:07.806Z,94.08
2023-05-25T21:06:36.499Z,95.45
2023-05-25T21:09:05.067Z,92.55
2023-05-25T21:11:33.242Z,94.88
2023-05-25T21:14:02.147Z,93.65
2023-05-25T21:16:31.974Z,93.26
2023-05-25T21:19:00.156Z,93.44
2023-05-25T21:21:29.136Z,92.37
2023-05-25T21:23:57.305Z,90.61
2023-05-25T21:26:26.115Z,92.09
2023-05-25T21:28:54.385Z,90.88
2023-05-25T21:31:22.802Z,92.00
2023-05-25T21:33:53.211Z,90.31
2023-05-25T21:36:21.467Z,93.16
2023-05-25T21:38:49.683Z,91.33
2023-05-25T21:41:17.949Z,87.90
2023-05-25T21:43:46.122Z,90.30
2023-05-25T21:46:14.263Z,87.89
2023-05-25T21:48:42.435Z,88.45
2023-05-25T21:51:12.053Z,88.74
2023-05-25T21:53:40.250Z,89.47
2023-05-25T21:56:08.419Z,88.70
2023-05-25T21:58:36.579Z,90.62
2023-05-25T22:01:04.912Z,90.21
2023-05-25T22:03:33.103Z,91.32
2023-05-25T22:06:01.303Z,89.29
2023-05-25T22:08:31.034Z,88.42
2023-05-25T22:10:59.331Z,86.79
2023-05-25T22:13:27.620Z,91.13
2023-05-25T22:15:56.071Z,94.01
2023-05-25T22:18:24.355Z,92.90
2023-05-25T22:20:52.785Z,93.99
2023-05-25T22:23:21.141Z,93.20
2023-05-25T22:25:50.934Z,92.01
2023-05-25T22:28:19.220Z,94.82
2023-05-25T22:30:47.650Z,97.90
2023-05-25T22:33:16.044Z,100.00
2023-05-25T22:35:44.501Z,100.00
2023-05-25T22:38:12.938Z,100.00
2023-05-25T22:40:41.240Z,100.00
2023-05-25T22:43:12.830Z,100.00
2023-05-25T22:45:41.597Z,100.00
2023-05-25T22:48:09.982Z,100.00
2023-05-25T22:50:38.386Z,100.00
2023-05-25T22:53:06.673Z,100.00
2023-05-25T22:55:34.980Z,100.00
2023-05-25T22:58:03.255Z,100.00
2023-05-25T23:00:32.981Z,100.00
2023-05-25T23:03:03.257Z,100.00
2023-05-25T23:05:32.679Z,100.00
2023-05-25T23:08:01.033Z,100.00
2023-05-25T23:10:29.348Z,100.00
2023-05-25T23:12:57.635Z,100.00
2023-05-25T23:15:25.956Z,100.00
2023-05-25T23:17:55.696Z,100.00
2023-05-25T23:20:24.254Z,100.00
2023-05-25T23:22:52.596Z,100.00
2023-05-25T23:25:21.094Z,100.00
2023-05-25T23:27:49.463Z,100.00
2023-05-25T23:30:18.062Z,100.00
2023-05-25T23:32:46.453Z,100.00
2023-05-25T23:35:16.413Z,100.00
2023-05-25T23:37:44.936Z,100.00
2023-05-25T23:40:13.423Z,100.00
2023-05-25T23:42:44.836Z,100.00
2023-05-25T23:45:13.713Z,100.00
2023-05-25T23:47:42.263Z,100.00
2023-05-25T23:50:11.662Z,100.00
2023-05-25T23:52:41.584Z,100.00
2023-05-25T23:55:09.983Z,100.00
2023-05-25T23:57:38.240Z,100.00
